MSC Lirica — HOPW — position and weather

sailwx.info

Track history (hours):
 
Tides and Currents Weather Stations Pressure Air Temp Water Temp Dewpoint Dewpoint Depression Visibility Wind Speed Wind Dir Waves Ship Positions

MSC Lirica

Operator: Mediterranean Shipping Company

Last reported at 2017-Nov-19 10:05 UTC. Time now 2017-Nov-23 00:22 UTC.
Position N 31°14' E 122°05'.

Length 275 m; draft 6.9 m.

Type: Ship. MMSI: 356042000.

Date/timePositionNaut miles runAvg speedWind from/ knotsBaromVisibWave heightAir tempDewpointWater temp
2017-Nov-19 10:05N 31°14' E 122°05'115.1
2017-Nov-19 10:00N 31°14' E 122°04'715.0
2017-Nov-19 09:31N 31°16' E 121°55'714.9
2017-Nov-19 09:00N 31°18' E 121°47'713.9
2017-Nov-19 08:30N 31°21' E 121°40'612.2
2017-Nov-19 08:00N 31°24' E 121°33'3 4.8
2017-Nov-19 07:28N 31°25' E 121°30'0 0.0
2017-Nov-19 06:55N 31°25' E 121°30'0 0.0
2017-Nov-19 06:28N 31°25' E 121°30'0 0.0
2017-Nov-19 06:00N 31°25' E 121°30'0 0.0
2017-Nov-19 05:30N 31°25' E 121°30'0 0.0
2017-Nov-19 05:00N 31°25' E 121°30'0 0.0
2017-Nov-19 04:30N 31°25' E 121°30'0 0.0
2017-Nov-19 04:00N 31°25' E 121°30'0 0.0
2017-Nov-19 03:29N 31°25' E 121°30'0 0.0
2017-Nov-19 02:59N 31°25' E 121°30'0 0.0
2017-Nov-19 02:29N 31°25' E 121°30'0 0.0
2017-Nov-19 01:59N 31°25' E 121°30'0 0.0
2017-Nov-19 01:29N 31°25' E 121°30'0 0.0
2017-Nov-19 00:58N 31°25' E 121°30'0 0.0
2017-Nov-19 00:28N 31°25' E 121°30'0 0.0
2017-Nov-18 23:58N 31°25' E 121°30'0 0.0
2017-Nov-18 23:28N 31°25' E 121°30'0 0.0
2017-Nov-18 23:01N 31°25' E 121°30'0 0.0
2017-Nov-18 22:30N 31°25' E 121°30'0 0.0
2017-Nov-18 22:00N 31°25' E 121°30'0 0.0
2017-Nov-18 21:30N 31°25' E 121°30'0 0.0
2017-Nov-18 21:00N 31°25' E 121°30'0 0.0
2017-Nov-18 20:29N 31°25' E 121°30'0 0.0
2017-Nov-18 19:59N 31°25' E 121°30'0 0.0
2017-Nov-18 19:29N 31°25' E 121°30'0 0.0
2017-Nov-18 18:59N 31°25' E 121°30'0 0.0
2017-Nov-18 18:29N 31°25' E 121°30'1 1.2
2017-Nov-18 18:00N 31°25' E 121°31'510.3
2017-Nov-18 17:30N 31°23' E 121°36'611.6
2017-Nov-18 17:00N 31°20' E 121°42'713.3
2017-Nov-18 16:31N 31°17' E 121°49'714.8
2017-Nov-18 16:01N 31°15' E 121°58'715.0
2017-Nov-18 15:31N 31°13' E 122°06'  
2017-Nov-14 10:47N 31°11' E 122°11'414.5
2017-Nov-14 10:30N 31°13' E 122°07'714.6
2017-Nov-14 10:00N 31°15' E 121°59'714.6
2017-Nov-14 09:30N 31°17' E 121°50'714.8
2017-Nov-14 09:01N 31°19' E 121°42'611.7
2017-Nov-14 08:31N 31°22' E 121°37'611.2
2017-Nov-14 08:00N 31°25' E 121°31'0 0.4
2017-Nov-14 07:28N 31°25' E 121°30'0 0.0
2017-Nov-14 06:55N 31°25' E 121°30'0 0.0
2017-Nov-14 06:28N 31°25' E 121°30'0 0.0
2017-Nov-14 06:01N 31°25' E 121°30'0 0.0
2017-Nov-14 05:30N 31°25' E 121°30'0 0.0
2017-Nov-14 05:00N 31°25' E 121°30'0 0.0
2017-Nov-14 04:30N 31°25' E 121°30'0 0.0
2017-Nov-14 04:00N 31°25' E 121°30'0 0.0
2017-Nov-14 03:29N 31°25' E 121°30'0 0.0
2017-Nov-14 02:56N 31°25' E 121°30'0 0.0
2017-Nov-14 02:29N 31°25' E 121°30'0 0.0
2017-Nov-14 01:59N 31°25' E 121°30'0 0.0
2017-Nov-14 01:29N 31°25' E 121°30'0 0.0
2017-Nov-14 00:58N 31°25' E 121°30'0 0.0
2017-Nov-14 00:28N 31°25' E 121°30'0 0.0
2017-Nov-13 23:58N 31°25' E 121°30'0 0.0
2017-Nov-13 23:19N 31°25' E 121°30'0 0.0
2017-Nov-13 23:00N 31°25' E 121°30'1 1.3
2017-Nov-13 22:30N 31°25' E 121°31'5 9.8
2017-Nov-13 22:00N 31°23' E 121°36'  
2017-Nov-10 11:35N 31°11' E 122°10'312.3
2017-Nov-10 11:20N 31°13' E 122°07'411.4
2017-Nov-10 11:00N 31°14' E 122°03'611.2
2017-Nov-10 10:30N 31°15' E 121°57'511.0
2017-Nov-10 10:00N 31°17' E 121°50'611.9
2017-Nov-10 09:30N 31°19' E 121°44'510.1
2017-Nov-10 09:00N 31°21' E 121°39'510.0
2017-Nov-10 08:30N 31°24' E 121°34'3 5.7
2017-Nov-10 08:00N 31°25' E 121°30'0 0.0
2017-Nov-10 07:29N 31°25' E 121°30'0 0.0
2017-Nov-10 06:59N 31°25' E 121°30'0 0.0
2017-Nov-10 06:29N 31°25' E 121°30'0 0.0
2017-Nov-10 05:59N 31°25' E 121°30'0 0.0
2017-Nov-10 05:29N 31°25' E 121°30'0 0.0
2017-Nov-10 04:58N 31°25' E 121°30'0 0.0
2017-Nov-10 04:28N 31°25' E 121°30'0 0.0
2017-Nov-10 03:58N 31°25' E 121°30'0 0.0
2017-Nov-10 03:28N 31°25' E 121°30'0 0.0
2017-Nov-10 02:58N 31°25' E 121°30'0 0.0
2017-Nov-10 02:30N 31°25' E 121°30'0 0.0
2017-Nov-10 02:00N 31°25' E 121°30'0 0.0
2017-Nov-10 01:27N 31°25' E 121°30'0 0.0
2017-Nov-10 01:00N 31°25' E 121°30'0 0.0
2017-Nov-10 00:29N 31°25' E 121°30'0 0.0
2017-Nov-09 23:59N 31°25' E 121°30'0 0.0
2017-Nov-09 23:29N 31°25' E 121°30'0 0.0
2017-Nov-09 22:59N 31°25' E 121°30'0 0.0
2017-Nov-09 22:29N 31°25' E 121°30'0 0.0
2017-Nov-09 21:58N 31°25' E 121°30'0 0.0
2017-Nov-09 21:28N 31°25' E 121°30'0 0.0
2017-Nov-09 21:00N 31°25' E 121°30'1 1.4
2017-Nov-09 20:30N 31°25' E 121°31'510.7
2017-Nov-09 20:00N 31°22' E 121°37'510.0
2017-Nov-09 19:30N 31°20' E 121°42'4 8.9
2017-Nov-09 19:00N 31°18' E 121°47'5 9.9
2017-Nov-09 18:30N 31°16' E 121°52'510.6
2017-Nov-09 18:00N 31°15' E 121°58'510.3
2017-Nov-09 17:30N 31°14' E 122°04'5 9.0
2017-Nov-09 16:59N 31°12' E 122°09'5 8.7
2017-Nov-09 16:27N 31°09' E 122°13'4 8.8
2017-Nov-09 15:58N 31°07' E 122°17'4 8.6
2017-Nov-09 15:30N 31°06' E 122°22'6 8.0
2017-Nov-09 14:46N 31°07' E 122°29'413.6
2017-Nov-09 14:30N 31°07' E 122°33'815.0
2017-Nov-09 14:00N 31°07' E 122°42'714.3
2017-Nov-09 13:30N 31°08' E 122°50'918.3
2017-Nov-09 13:00N 31°11' E 122°60'1019.1
2017-Nov-09 12:30N 31°14' E 123°11'  
Track history (hours):
 
Tides and Currents Weather Stations Pressure Air Temp Water Temp Dewpoint Dewpoint Depression Visibility Wind Speed Wind Dir Waves Ship Positions

MSC Lirica

Operator: Mediterranean Shipping Company

Last reported at 2017-Nov-19 10:05 UTC. Time now 2017-Nov-23 00:22 UTC.
Position N 31°14' E 122°05'.

Length 275 m; draft 6.9 m.

Type: Ship. MMSI: 356042000.

Date/timePositionNaut miles runAvg speedWind from/ knotsBaromVisibWave heightAir tempDewpointWater temp
2017-Nov-19 10:05N 31°14' E 122°05'115.1
2017-Nov-19 10:00N 31°14' E 122°04'715.0
2017-Nov-19 09:31N 31°16' E 121°55'714.9
2017-Nov-19 09:00N 31°18' E 121°47'713.9
2017-Nov-19 08:30N 31°21' E 121°40'612.2
2017-Nov-19 08:00N 31°24' E 121°33'3 4.8
2017-Nov-19 07:28N 31°25' E 121°30'0 0.0
2017-Nov-19 06:55N 31°25' E 121°30'0 0.0
2017-Nov-19 06:28N 31°25' E 121°30'0 0.0
2017-Nov-19 06:00N 31°25' E 121°30'0 0.0
2017-Nov-19 05:30N 31°25' E 121°30'0 0.0
2017-Nov-19 05:00N 31°25' E 121°30'0 0.0
2017-Nov-19 04:30N 31°25' E 121°30'0 0.0
2017-Nov-19 04:00N 31°25' E 121°30'0 0.0
2017-Nov-19 03:29N 31°25' E 121°30'0 0.0
2017-Nov-19 02:59N 31°25' E 121°30'0 0.0
2017-Nov-19 02:29N 31°25' E 121°30'0 0.0
2017-Nov-19 01:59N 31°25' E 121°30'0 0.0
2017-Nov-19 01:29N 31°25' E 121°30'0 0.0
2017-Nov-19 00:58N 31°25' E 121°30'0 0.0
2017-Nov-19 00:28N 31°25' E 121°30'0 0.0
2017-Nov-18 23:58N 31°25' E 121°30'0 0.0
2017-Nov-18 23:28N 31°25' E 121°30'0 0.0
2017-Nov-18 23:01N 31°25' E 121°30'0 0.0
2017-Nov-18 22:30N 31°25' E 121°30'0 0.0
2017-Nov-18 22:00N 31°25' E 121°30'0 0.0
2017-Nov-18 21:30N 31°25' E 121°30'0 0.0
2017-Nov-18 21:00N 31°25' E 121°30'0 0.0
2017-Nov-18 20:29N 31°25' E 121°30'0 0.0
2017-Nov-18 19:59N 31°25' E 121°30'0 0.0
2017-Nov-18 19:29N 31°25' E 121°30'0 0.0
2017-Nov-18 18:59N 31°25' E 121°30'0 0.0
2017-Nov-18 18:29N 31°25' E 121°30'1 1.2
2017-Nov-18 18:00N 31°25' E 121°31'510.3
2017-Nov-18 17:30N 31°23' E 121°36'611.6
2017-Nov-18 17:00N 31°20' E 121°42'713.3
2017-Nov-18 16:31N 31°17' E 121°49'714.8
2017-Nov-18 16:01N 31°15' E 121°58'715.0
2017-Nov-18 15:31N 31°13' E 122°06'  
2017-Nov-14 10:47N 31°11' E 122°11'414.5
2017-Nov-14 10:30N 31°13' E 122°07'714.6
2017-Nov-14 10:00N 31°15' E 121°59'714.6
2017-Nov-14 09:30N 31°17' E 121°50'714.8
2017-Nov-14 09:01N 31°19' E 121°42'611.7
2017-Nov-14 08:31N 31°22' E 121°37'611.2
2017-Nov-14 08:00N 31°25' E 121°31'0 0.4
2017-Nov-14 07:28N 31°25' E 121°30'0 0.0
2017-Nov-14 06:55N 31°25' E 121°30'0 0.0
2017-Nov-14 06:28N 31°25' E 121°30'0 0.0
2017-Nov-14 06:01N 31°25' E 121°30'0 0.0
2017-Nov-14 05:30N 31°25' E 121°30'0 0.0
2017-Nov-14 05:00N 31°25' E 121°30'0 0.0
2017-Nov-14 04:30N 31°25' E 121°30'0 0.0
2017-Nov-14 04:00N 31°25' E 121°30'0 0.0
2017-Nov-14 03:29N 31°25' E 121°30'0 0.0
2017-Nov-14 02:56N 31°25' E 121°30'0 0.0
2017-Nov-14 02:29N 31°25' E 121°30'0 0.0
2017-Nov-14 01:59N 31°25' E 121°30'0 0.0
2017-Nov-14 01:29N 31°25' E 121°30'0 0.0
2017-Nov-14 00:58N 31°25' E 121°30'0 0.0
2017-Nov-14 00:28N 31°25' E 121°30'0 0.0
2017-Nov-13 23:58N 31°25' E 121°30'0 0.0
2017-Nov-13 23:19N 31°25' E 121°30'0 0.0
2017-Nov-13 23:00N 31°25' E 121°30'1 1.3
2017-Nov-13 22:30N 31°25' E 121°31'5 9.8
2017-Nov-13 22:00N 31°23' E 121°36'  
2017-Nov-10 11:35N 31°11' E 122°10'312.3
2017-Nov-10 11:20N 31°13' E 122°07'411.4
2017-Nov-10 11:00N 31°14' E 122°03'611.2
2017-Nov-10 10:30N 31°15' E 121°57'511.0
2017-Nov-10 10:00N 31°17' E 121°50'611.9
2017-Nov-10 09:30N 31°19' E 121°44'510.1
2017-Nov-10 09:00N 31°21' E 121°39'510.0
2017-Nov-10 08:30N 31°24' E 121°34'3 5.7
2017-Nov-10 08:00N 31°25' E 121°30'0 0.0
2017-Nov-10 07:29N 31°25' E 121°30'0 0.0
2017-Nov-10 06:59N 31°25' E 121°30'0 0.0
2017-Nov-10 06:29N 31°25' E 121°30'0 0.0
2017-Nov-10 05:59N 31°25' E 121°30'0 0.0
2017-Nov-10 05:29N 31°25' E 121°30'0 0.0
2017-Nov-10 04:58N 31°25' E 121°30'0 0.0
2017-Nov-10 04:28N 31°25' E 121°30'0 0.0
2017-Nov-10 03:58N 31°25' E 121°30'0 0.0
2017-Nov-10 03:28N 31°25' E 121°30'0 0.0
2017-Nov-10 02:58N 31°25' E 121°30'0 0.0
2017-Nov-10 02:30N 31°25' E 121°30'0 0.0
2017-Nov-10 02:00N 31°25' E 121°30'0 0.0
2017-Nov-10 01:27N 31°25' E 121°30'0 0.0
2017-Nov-10 01:00N 31°25' E 121°30'0 0.0
2017-Nov-10 00:29N 31°25' E 121°30'0 0.0
2017-Nov-09 23:59N 31°25' E 121°30'0 0.0
2017-Nov-09 23:29N 31°25' E 121°30'0 0.0
2017-Nov-09 22:59N 31°25' E 121°30'0 0.0
2017-Nov-09 22:29N 31°25' E 121°30'0 0.0
2017-Nov-09 21:58N 31°25' E 121°30'0 0.0
2017-Nov-09 21:28N 31°25' E 121°30'0 0.0
2017-Nov-09 21:00N 31°25' E 121°30'1 1.4
2017-Nov-09 20:30N 31°25' E 121°31'510.7
2017-Nov-09 20:00N 31°22' E 121°37'510.0
2017-Nov-09 19:30N 31°20' E 121°42'4 8.9
2017-Nov-09 19:00N 31°18' E 121°47'5 9.9
2017-Nov-09 18:30N 31°16' E 121°52'510.6
2017-Nov-09 18:00N 31°15' E 121°58'510.3
2017-Nov-09 17:30N 31°14' E 122°04'5 9.0
2017-Nov-09 16:59N 31°12' E 122°09'5 8.7
2017-Nov-09 16:27N 31°09' E 122°13'4 8.8
2017-Nov-09 15:58N 31°07' E 122°17'4 8.6
2017-Nov-09 15:30N 31°06' E 122°22'6 8.0
2017-Nov-09 14:46N 31°07' E 122°29'413.6
2017-Nov-09 14:30N 31°07' E 122°33'815.0
2017-Nov-09 14:00N 31°07' E 122°42'714.3
2017-Nov-09 13:30N 31°08' E 122°50'918.3
2017-Nov-09 13:00N 31°11' E 122°60'1019.1
2017-Nov-09 12:30N 31°14' E 123°11'  

Dump ship's entire track history